Terminal Aerodrome Forecast
Issued by NWS

Home | Current Version | Previous Version | Text Only | Print | Product List | Glossary On
Versions: 1 2 3 4 5 6 7 8 9 10 11 12 13 14 15 16 17
000
FTUS43 KABR 230200 AAA
TAFPIR
TAF AMD
KPIR 230215Z 2302/2324 16013KT P6SM VCSH OVC090
     FM230600 13014KT P6SM OVC100
     FM231400 15010KT P6SM VCSH OVC050=

USA.gov is the U.S. government's official web portal to all federal, state and local government web resources and services.